sensor_id;sensor_type;location;lat;lon;timestamp;P1;durP1;ratioP1;P2;durP2;ratioP2
25341;SDS011;13298;48.792;9.154;2023-04-07T00:00:41;9.15;;;6.90;;
25341;SDS011;13298;48.792;9.154;2023-04-07T00:03:07;12.25;;;6.85;;
25341;SDS011;13298;48.792;9.154;2023-04-07T00:05:33;8.93;;;6.07;;
25341;SDS011;13298;48.792;9.154;2023-04-07T00:07:59;9.90;;;6.93;;
25341;SDS011;13298;48.792;9.154;2023-04-07T00:10:25;10.23;;;6.88;;
25341;SDS011;13298;48.792;9.154;2023-04-07T00:12:51;9.48;;;6.72;;
25341;SDS011;13298;48.792;9.154;2023-04-07T00:15:16;8.63;;;6.20;;
25341;SDS011;13298;48.792;9.154;2023-04-07T00:17:42;14.05;;;6.95;;
25341;SDS011;13298;48.792;9.154;2023-04-07T00:20:08;10.15;;;7.13;;
25341;SDS011;13298;48.792;9.154;2023-04-07T00:22:34;10.40;;;7.32;;
25341;SDS011;13298;48.792;9.154;2023-04-07T00:24:59;10.02;;;7.00;;
25341;SDS011;13298;48.792;9.154;2023-04-07T00:27:25;10.15;;;6.93;;
25341;SDS011;13298;48.792;9.154;2023-04-07T00:29:51;8.05;;;6.10;;
25341;SDS011;13298;48.792;9.154;2023-04-07T00:32:19;10.63;;;7.57;;
25341;SDS011;13298;48.792;9.154;2023-04-07T00:34:45;11.35;;;7.07;;
25341;SDS011;13298;48.792;9.154;2023-04-07T00:37:11;15.18;;;8.38;;
25341;SDS011;13298;48.792;9.154;2023-04-07T00:39:37;8.88;;;6.50;;
25341;SDS011;13298;48.792;9.154;2023-04-07T00:42:03;9.43;;;7.05;;
25341;SDS011;13298;48.792;9.154;2023-04-07T00:44:30;11.57;;;8.10;;
25341;SDS011;13298;48.792;9.154;2023-04-07T00:46:56;10.43;;;6.70;;
25341;SDS011;13298;48.792;9.154;2023-04-07T00:49:22;11.27;;;7.40;;
25341;SDS011;13298;48.792;9.154;2023-04-07T00:51:49;11.02;;;7.30;;
25341;SDS011;13298;48.792;9.154;2023-04-07T00:54:15;10.52;;;6.90;;
25341;SDS011;13298;48.792;9.154;2023-04-07T00:56:42;13.00;;;7.43;;
25341;SDS011;13298;48.792;9.154;2023-04-07T00:59:08;12.95;;;8.02;;
25341;SDS011;13298;48.792;9.154;2023-04-07T01:04:08;9.55;;;6.70;;
25341;SDS011;13298;48.792;9.154;2023-04-07T01:06:47;9.63;;;7.00;;
25341;SDS011;13298;48.792;9.154;2023-04-07T01:09:20;8.38;;;6.68;;
25341;SDS011;13298;48.792;9.154;2023-04-07T01:11:58;10.32;;;7.15;;
25341;SDS011;13298;48.792;9.154;2023-04-07T01:14:31;10.48;;;6.68;;
25341;SDS011;13298;48.792;9.154;2023-04-07T01:17:02;10.32;;;6.72;;
25341;SDS011;13298;48.792;9.154;2023-04-07T01:22:22;10.23;;;7.20;;
25341;SDS011;13298;48.792;9.154;2023-04-07T01:25:01;11.57;;;6.93;;
25341;SDS011;13298;48.792;9.154;2023-04-07T01:27:55;8.43;;;6.25;;
25341;SDS011;13298;48.792;9.154;2023-04-07T01:30:27;8.18;;;6.45;;
25341;SDS011;13298;48.792;9.154;2023-04-07T01:32:57;9.20;;;6.13;;
25341;SDS011;13298;48.792;9.154;2023-04-07T01:35:25;9.55;;;6.28;;
25341;SDS011;13298;48.792;9.154;2023-04-07T01:37:55;9.82;;;6.70;;
25341;SDS011;13298;48.792;9.154;2023-04-07T01:40:21;11.10;;;7.43;;
25341;SDS011;13298;48.792;9.154;2023-04-07T01:42:49;12.40;;;8.00;;
25341;SDS011;13298;48.792;9.154;2023-04-07T01:45:16;11.45;;;6.80;;
25341;SDS011;13298;48.792;9.154;2023-04-07T01:47:43;10.45;;;7.05;;
25341;SDS011;13298;48.792;9.154;2023-04-07T01:50:10;11.10;;;7.18;;
25341;SDS011;13298;48.792;9.154;2023-04-07T01:52:37;10.68;;;7.18;;
25341;SDS011;13298;48.792;9.154;2023-04-07T01:55:04;11.23;;;7.40;;
25341;SDS011;13298;48.792;9.154;2023-04-07T01:57:31;9.43;;;7.03;;
25341;SDS011;13298;48.792;9.154;2023-04-07T01:59:57;10.65;;;7.57;;
25341;SDS011;13298;48.792;9.154;2023-04-07T02:02:23;12.27;;;6.95;;
25341;SDS011;13298;48.792;9.154;2023-04-07T02:04:56;10.40;;;6.95;;
25341;SDS011;13298;48.792;9.154;2023-04-07T02:07:31;12.20;;;7.15;;
25341;SDS011;13298;48.792;9.154;2023-04-07T02:10:05;11.43;;;7.20;;
25341;SDS011;13298;48.792;9.154;2023-04-07T02:12:36;8.80;;;6.22;;
25341;SDS011;13298;48.792;9.154;2023-04-07T02:15:04;10.38;;;6.70;;
25341;SDS011;13298;48.792;9.154;2023-04-07T02:17:37;8.70;;;6.70;;
25341;SDS011;13298;48.792;9.154;2023-04-07T02:20:05;10.07;;;7.55;;
25341;SDS011;13298;48.792;9.154;2023-04-07T02:22:34;10.48;;;6.95;;
25341;SDS011;13298;48.792;9.154;2023-04-07T02:25:01;8.93;;;6.68;;
25341;SDS011;13298;48.792;9.154;2023-04-07T02:27:27;10.82;;;7.47;;
25341;SDS011;13298;48.792;9.154;2023-04-07T02:29:53;9.15;;;6.82;;
25341;SDS011;13298;48.792;9.154;2023-04-07T02:32:18;11.65;;;8.00;;
25341;SDS011;13298;48.792;9.154;2023-04-07T02:34:44;9.35;;;6.85;;
25341;SDS011;13298;48.792;9.154;2023-04-07T02:37:10;10.65;;;7.28;;
25341;SDS011;13298;48.792;9.154;2023-04-07T02:39:36;8.82;;;6.07;;
25341;SDS011;13298;48.792;9.154;2023-04-07T02:42:01;12.45;;;7.38;;
25341;SDS011;13298;48.792;9.154;2023-04-07T02:44:27;9.63;;;6.90;;
25341;SDS011;13298;48.792;9.154;2023-04-07T02:46:53;11.50;;;7.00;;
25341;SDS011;13298;48.792;9.154;2023-04-07T02:49:18;10.00;;;6.45;;
25341;SDS011;13298;48.792;9.154;2023-04-07T02:51:44;8.55;;;6.00;;
25341;SDS011;13298;48.792;9.154;2023-04-07T02:54:10;10.30;;;6.63;;
25341;SDS011;13298;48.792;9.154;2023-04-07T02:56:36;10.95;;;6.63;;
25341;SDS011;13298;48.792;9.154;2023-04-07T02:59:02;10.48;;;6.65;;
25341;SDS011;13298;48.792;9.154;2023-04-07T03:01:27;9.98;;;7.05;;
25341;SDS011;13298;48.792;9.154;2023-04-07T03:03:53;8.48;;;6.13;;
25341;SDS011;13298;48.792;9.154;2023-04-07T03:06:19;8.93;;;6.35;;
25341;SDS011;13298;48.792;9.154;2023-04-07T03:08:44;10.45;;;6.65;;
25341;SDS011;13298;48.792;9.154;2023-04-07T03:11:10;12.13;;;7.05;;
25341;SDS011;13298;48.792;9.154;2023-04-07T03:13:36;11.13;;;7.32;;
25341;SDS011;13298;48.792;9.154;2023-04-07T03:16:02;10.05;;;6.85;;
25341;SDS011;13298;48.792;9.154;2023-04-07T03:18:27;12.45;;;7.07;;
25341;SDS011;13298;48.792;9.154;2023-04-07T03:20:53;10.00;;;6.78;;
25341;SDS011;13298;48.792;9.154;2023-04-07T03:23:20;8.23;;;6.57;;
25341;SDS011;13298;48.792;9.154;2023-04-07T03:25:47;10.48;;;6.55;;
25341;SDS011;13298;48.792;9.154;2023-04-07T03:28:13;10.85;;;7.07;;
25341;SDS011;13298;48.792;9.154;2023-04-07T03:30:39;9.60;;;6.53;;
25341;SDS011;13298;48.792;9.154;2023-04-07T03:33:05;11.32;;;6.90;;
25341;SDS011;13298;48.792;9.154;2023-04-07T03:35:31;8.93;;;6.05;;
25341;SDS011;13298;48.792;9.154;2023-04-07T03:37:56;9.40;;;6.88;;
25341;SDS011;13298;48.792;9.154;2023-04-07T03:40:22;10.65;;;6.47;;
25341;SDS011;13298;48.792;9.154;2023-04-07T03:42:48;8.85;;;6.75;;
25341;SDS011;13298;48.792;9.154;2023-04-07T03:45:13;13.05;;;6.90;;
25341;SDS011;13298;48.792;9.154;2023-04-07T03:47:40;9.98;;;6.68;;
25341;SDS011;13298;48.792;9.154;2023-04-07T03:50:06;9.30;;;6.13;;
25341;SDS011;13298;48.792;9.154;2023-04-07T03:52:32;8.43;;;5.68;;
25341;SDS011;13298;48.792;9.154;2023-04-07T03:54:58;8.35;;;6.38;;
25341;SDS011;13298;48.792;9.154;2023-04-07T03:57:23;8.93;;;6.32;;
25341;SDS011;13298;48.792;9.154;2023-04-07T03:59:49;9.80;;;6.60;;
25341;SDS011;13298;48.792;9.154;2023-04-07T04:02:15;9.45;;;6.85;;
25341;SDS011;13298;48.792;9.154;2023-04-07T04:04:41;9.88;;;7.05;;
25341;SDS011;13298;48.792;9.154;2023-04-07T04:07:07;9.30;;;6.30;;
25341;SDS011;13298;48.792;9.154;2023-04-07T04:09:33;9.02;;;6.57;;
25341;SDS011;13298;48.792;9.154;2023-04-07T04:11:59;8.27;;;6.28;;
25341;SDS011;13298;48.792;9.154;2023-04-07T04:14:25;10.80;;;6.78;;
25341;SDS011;13298;48.792;9.154;2023-04-07T04:16:50;11.80;;;7.00;;
25341;SDS011;13298;48.792;9.154;2023-04-07T04:19:16;9.52;;;6.25;;
25341;SDS011;13298;48.792;9.154;2023-04-07T04:21:42;9.40;;;6.38;;
25341;SDS011;13298;48.792;9.154;2023-04-07T04:24:07;10.27;;;6.60;;
25341;SDS011;13298;48.792;9.154;2023-04-07T04:26:33;9.90;;;6.45;;
25341;SDS011;13298;48.792;9.154;2023-04-07T04:28:59;10.70;;;6.45;;
25341;SDS011;13298;48.792;9.154;2023-04-07T04:31:26;10.35;;;6.78;;
25341;SDS011;13298;48.792;9.154;2023-04-07T04:33:52;10.68;;;6.80;;
25341;SDS011;13298;48.792;9.154;2023-04-07T04:36:17;9.77;;;6.40;;
25341;SDS011;13298;48.792;9.154;2023-04-07T04:38:43;8.50;;;6.45;;
25341;SDS011;13298;48.792;9.154;2023-04-07T04:41:09;7.90;;;5.97;;
25341;SDS011;13298;48.792;9.154;2023-04-07T04:43:35;10.50;;;6.68;;
25341;SDS011;13298;48.792;9.154;2023-04-07T04:46:00;11.68;;;7.05;;
25341;SDS011;13298;48.792;9.154;2023-04-07T04:48:26;9.43;;;7.05;;
25341;SDS011;13298;48.792;9.154;2023-04-07T04:50:52;9.02;;;6.63;;
25341;SDS011;13298;48.792;9.154;2023-04-07T04:53:17;9.98;;;7.18;;
25341;SDS011;13298;48.792;9.154;2023-04-07T04:55:43;10.18;;;6.47;;
25341;SDS011;13298;48.792;9.154;2023-04-07T04:58:12;8.55;;;6.90;;
25341;SDS011;13298;48.792;9.154;2023-04-07T05:00:37;8.55;;;6.43;;
25341;SDS011;13298;48.792;9.154;2023-04-07T05:03:03;9.70;;;6.80;;
25341;SDS011;13298;48.792;9.154;2023-04-07T05:05:29;12.10;;;7.20;;
25341;SDS011;13298;48.792;9.154;2023-04-07T05:07:54;9.07;;;6.70;;
25341;SDS011;13298;48.792;9.154;2023-04-07T05:10:20;10.25;;;6.45;;
25341;SDS011;13298;48.792;9.154;2023-04-07T05:12:46;8.82;;;6.35;;
25341;SDS011;13298;48.792;9.154;2023-04-07T05:15:12;8.93;;;6.20;;
25341;SDS011;13298;48.792;9.154;2023-04-07T05:17:39;9.32;;;6.40;;
25341;SDS011;13298;48.792;9.154;2023-04-07T05:20:05;10.30;;;6.18;;
25341;SDS011;13298;48.792;9.154;2023-04-07T05:22:33;9.82;;;7.65;;
25341;SDS011;13298;48.792;9.154;2023-04-07T05:24:59;9.60;;;6.65;;
25341;SDS011;13298;48.792;9.154;2023-04-07T05:27:25;10.20;;;6.82;;
25341;SDS011;13298;48.792;9.154;2023-04-07T05:29:51;10.75;;;7.22;;
25341;SDS011;13298;48.792;9.154;2023-04-07T05:32:17;10.63;;;6.38;;
25341;SDS011;13298;48.792;9.154;2023-04-07T05:34:43;10.35;;;7.07;;
25341;SDS011;13298;48.792;9.154;2023-04-07T05:37:09;10.45;;;7.00;;
25341;SDS011;13298;48.792;9.154;2023-04-07T05:39:34;10.98;;;6.95;;
25341;SDS011;13298;48.792;9.154;2023-04-07T05:42:00;9.13;;;6.47;;
25341;SDS011;13298;48.792;9.154;2023-04-07T05:44:26;7.68;;;6.30;;
25341;SDS011;13298;48.792;9.154;2023-04-07T05:46:52;10.43;;;7.03;;
25341;SDS011;13298;48.792;9.154;2023-04-07T05:49:18;9.25;;;6.50;;
25341;SDS011;13298;48.792;9.154;2023-04-07T05:51:44;8.50;;;6.50;;
25341;SDS011;13298;48.792;9.154;2023-04-07T05:54:09;9.25;;;6.85;;
25341;SDS011;13298;48.792;9.154;2023-04-07T05:56:35;10.05;;;6.50;;
25341;SDS011;13298;48.792;9.154;2023-04-07T05:59:01;10.15;;;6.57;;
25341;SDS011;13298;48.792;9.154;2023-04-07T06:01:27;11.48;;;7.10;;
25341;SDS011;13298;48.792;9.154;2023-04-07T06:03:53;8.98;;;6.15;;
25341;SDS011;13298;48.792;9.154;2023-04-07T06:06:19;9.40;;;6.20;;
25341;SDS011;13298;48.792;9.154;2023-04-07T06:08:45;8.00;;;6.13;;
25341;SDS011;13298;48.792;9.154;2023-04-07T06:11:11;14.15;;;6.88;;
25341;SDS011;13298;48.792;9.154;2023-04-07T06:13:37;8.82;;;6.35;;
25341;SDS011;13298;48.792;9.154;2023-04-07T06:16:02;9.20;;;6.72;;
25341;SDS011;13298;48.792;9.154;2023-04-07T06:18:30;9.23;;;6.80;;
25341;SDS011;13298;48.792;9.154;2023-04-07T06:20:56;11.07;;;6.95;;
25341;SDS011;13298;48.792;9.154;2023-04-07T06:23:21;8.63;;;6.40;;
25341;SDS011;13298;48.792;9.154;2023-04-07T06:25:47;10.02;;;6.47;;
25341;SDS011;13298;48.792;9.154;2023-04-07T06:28:17;8.65;;;6.15;;
25341;SDS011;13298;48.792;9.154;2023-04-07T06:30:43;10.13;;;6.45;;
25341;SDS011;13298;48.792;9.154;2023-04-07T06:33:09;9.73;;;6.85;;
25341;SDS011;13298;48.792;9.154;2023-04-07T06:35:34;10.43;;;7.15;;
25341;SDS011;13298;48.792;9.154;2023-04-07T06:38:00;9.00;;;6.47;;
25341;SDS011;13298;48.792;9.154;2023-04-07T06:40:26;8.23;;;6.03;;
25341;SDS011;13298;48.792;9.154;2023-04-07T06:42:52;11.65;;;7.43;;
25341;SDS011;13298;48.792;9.154;2023-04-07T06:45:18;9.10;;;6.65;;
25341;SDS011;13298;48.792;9.154;2023-04-07T06:47:44;10.27;;;6.38;;
25341;SDS011;13298;48.792;9.154;2023-04-07T06:50:11;9.02;;;6.43;;
25341;SDS011;13298;48.792;9.154;2023-04-07T06:52:36;9.85;;;7.00;;
25341;SDS011;13298;48.792;9.154;2023-04-07T06:55:02;9.38;;;6.28;;
25341;SDS011;13298;48.792;9.154;2023-04-07T06:57:28;8.38;;;6.00;;
25341;SDS011;13298;48.792;9.154;2023-04-07T06:59:54;13.13;;;7.50;;
25341;SDS011;13298;48.792;9.154;2023-04-07T07:02:20;10.18;;;7.18;;
25341;SDS011;13298;48.792;9.154;2023-04-07T07:04:45;8.82;;;6.15;;
25341;SDS011;13298;48.792;9.154;2023-04-07T07:07:11;7.97;;;5.72;;
25341;SDS011;13298;48.792;9.154;2023-04-07T07:09:37;8.68;;;6.40;;
25341;SDS011;13298;48.792;9.154;2023-04-07T07:12:02;8.52;;;5.82;;
25341;SDS011;13298;48.792;9.154;2023-04-07T07:14:30;10.95;;;6.75;;
25341;SDS011;13298;48.792;9.154;2023-04-07T07:16:55;10.30;;;6.45;;
25341;SDS011;13298;48.792;9.154;2023-04-07T07:19:21;10.45;;;6.53;;
25341;SDS011;13298;48.792;9.154;2023-04-07T07:21:47;8.98;;;6.50;;
25341;SDS011;13298;48.792;9.154;2023-04-07T07:24:12;11.25;;;7.28;;
25341;SDS011;13298;48.792;9.154;2023-04-07T07:26:38;9.38;;;6.32;;
25341;SDS011;13298;48.792;9.154;2023-04-07T07:29:05;10.55;;;6.60;;
25341;SDS011;13298;48.792;9.154;2023-04-07T07:31:31;8.75;;;6.57;;
25341;SDS011;13298;48.792;9.154;2023-04-07T07:33:57;11.00;;;6.63;;
25341;SDS011;13298;48.792;9.154;2023-04-07T07:36:22;10.85;;;6.88;;
25341;SDS011;13298;48.792;9.154;2023-04-07T07:38:49;9.18;;;6.32;;
25341;SDS011;13298;48.792;9.154;2023-04-07T07:41:15;11.52;;;7.07;;
25341;SDS011;13298;48.792;9.154;2023-04-07T07:43:41;10.65;;;7.15;;
25341;SDS011;13298;48.792;9.154;2023-04-07T07:46:07;11.98;;;6.68;;
25341;SDS011;13298;48.792;9.154;2023-04-07T07:48:32;8.20;;;6.18;;
25341;SDS011;13298;48.792;9.154;2023-04-07T07:50:58;7.95;;;6.30;;
25341;SDS011;13298;48.792;9.154;2023-04-07T07:53:24;8.70;;;6.40;;
25341;SDS011;13298;48.792;9.154;2023-04-07T07:55:50;9.90;;;6.05;;
25341;SDS011;13298;48.792;9.154;2023-04-07T07:58:16;11.30;;;6.63;;
25341;SDS011;13298;48.792;9.154;2023-04-07T08:00:41;8.95;;;6.07;;
25341;SDS011;13298;48.792;9.154;2023-04-07T08:03:07;8.25;;;5.78;;
25341;SDS011;13298;48.792;9.154;2023-04-07T08:05:33;8.52;;;5.57;;
25341;SDS011;13298;48.792;9.154;2023-04-07T08:07:58;10.57;;;6.72;;
25341;SDS011;13298;48.792;9.154;2023-04-07T08:10:24;12.20;;;7.45;;
25341;SDS011;13298;48.792;9.154;2023-04-07T08:12:50;10.52;;;7.15;;
25341;SDS011;13298;48.792;9.154;2023-04-07T08:15:16;8.85;;;6.68;;
25341;SDS011;13298;48.792;9.154;2023-04-07T08:17:41;11.52;;;6.38;;
25341;SDS011;13298;48.792;9.154;2023-04-07T08:20:07;10.63;;;5.80;;
25341;SDS011;13298;48.792;9.154;2023-04-07T08:22:35;9.68;;;6.20;;
25341;SDS011;13298;48.792;9.154;2023-04-07T08:25:01;8.68;;;6.53;;
25341;SDS011;13298;48.792;9.154;2023-04-07T08:27:27;9.15;;;6.25;;
25341;SDS011;13298;48.792;9.154;2023-04-07T08:30:03;12.10;;;6.20;;
25341;SDS011;13298;48.792;9.154;2023-04-07T08:32:36;7.15;;;5.35;;
25341;SDS011;13298;48.792;9.154;2023-04-07T08:35:04;8.33;;;5.57;;
25341;SDS011;13298;48.792;9.154;2023-04-07T08:37:30;8.68;;;5.10;;
25341;SDS011;13298;48.792;9.154;2023-04-07T08:39:57;7.90;;;5.00;;
25341;SDS011;13298;48.792;9.154;2023-04-07T08:42:24;8.00;;;4.60;;
25341;SDS011;13298;48.792;9.154;2023-04-07T08:44:55;6.75;;;4.82;;
25341;SDS011;13298;48.792;9.154;2023-04-07T08:47:23;8.13;;;5.05;;
25341;SDS011;13298;48.792;9.154;2023-04-07T08:49:51;6.03;;;4.22;;
25341;SDS011;13298;48.792;9.154;2023-04-07T08:52:22;7.00;;;4.68;;
25341;SDS011;13298;48.792;9.154;2023-04-07T08:54:58;6.68;;;4.70;;
25341;SDS011;13298;48.792;9.154;2023-04-07T08:57:27;5.93;;;4.00;;
25341;SDS011;13298;48.792;9.154;2023-04-07T08:59:57;8.27;;;4.47;;
25341;SDS011;13298;48.792;9.154;2023-04-07T09:02:30;5.95;;;4.03;;
25341;SDS011;13298;48.792;9.154;2023-04-07T09:05:04;7.88;;;4.53;;
25341;SDS011;13298;48.792;9.154;2023-04-07T09:07:33;6.93;;;4.18;;
25341;SDS011;13298;48.792;9.154;2023-04-07T09:10:00;7.63;;;4.40;;
25341;SDS011;13298;48.792;9.154;2023-04-07T09:12:27;6.65;;;4.80;;
25341;SDS011;13298;48.792;9.154;2023-04-07T09:14:53;8.40;;;4.72;;
25341;SDS011;13298;48.792;9.154;2023-04-07T09:17:19;7.03;;;4.47;;
25341;SDS011;13298;48.792;9.154;2023-04-07T09:19:46;7.80;;;4.35;;
25341;SDS011;13298;48.792;9.154;2023-04-07T09:22:12;9.43;;;4.50;;
25341;SDS011;13298;48.792;9.154;2023-04-07T09:24:39;10.20;;;4.82;;
25341;SDS011;13298;48.792;9.154;2023-04-07T09:27:09;6.13;;;4.20;;
25341;SDS011;13298;48.792;9.154;2023-04-07T09:29:36;7.20;;;4.60;;
25341;SDS011;13298;48.792;9.154;2023-04-07T09:32:04;7.45;;;4.85;;
25341;SDS011;13298;48.792;9.154;2023-04-07T09:34:33;7.90;;;4.25;;
25341;SDS011;13298;48.792;9.154;2023-04-07T09:37:02;6.25;;;4.22;;
25341;SDS011;13298;48.792;9.154;2023-04-07T09:39:30;8.77;;;4.15;;
25341;SDS011;13298;48.792;9.154;2023-04-07T09:41:56;9.85;;;4.43;;
25341;SDS011;13298;48.792;9.154;2023-04-07T09:44:23;8.63;;;4.43;;
25341;SDS011;13298;48.792;9.154;2023-04-07T09:46:51;9.43;;;4.30;;
25341;SDS011;13298;48.792;9.154;2023-04-07T09:49:23;6.78;;;4.30;;
25341;SDS011;13298;48.792;9.154;2023-04-07T09:51:57;5.35;;;3.78;;
25341;SDS011;13298;48.792;9.154;2023-04-07T09:56:59;6.35;;;3.50;;
25341;SDS011;13298;48.792;9.154;2023-04-07T09:59:26;3.72;;;3.00;;
25341;SDS011;13298;48.792;9.154;2023-04-07T10:01:53;6.95;;;3.72;;
25341;SDS011;13298;48.792;9.154;2023-04-07T10:04:19;6.00;;;3.83;;
25341;SDS011;13298;48.792;9.154;2023-04-07T10:06:45;6.60;;;4.05;;
25341;SDS011;13298;48.792;9.154;2023-04-07T10:09:11;7.05;;;4.30;;
25341;SDS011;13298;48.792;9.154;2023-04-07T10:11:38;5.60;;;4.20;;
25341;SDS011;13298;48.792;9.154;2023-04-07T10:14:06;8.18;;;4.70;;
25341;SDS011;13298;48.792;9.154;2023-04-07T10:16:34;8.23;;;4.80;;
25341;SDS011;13298;48.792;9.154;2023-04-07T10:19:01;9.63;;;5.60;;
25341;SDS011;13298;48.792;9.154;2023-04-07T10:21:27;10.45;;;5.18;;
25341;SDS011;13298;48.792;9.154;2023-04-07T10:26:45;7.57;;;4.10;;
25341;SDS011;13298;48.792;9.154;2023-04-07T10:29:16;9.70;;;4.97;;
25341;SDS011;13298;48.792;9.154;2023-04-07T10:31:43;7.60;;;4.78;;
25341;SDS011;13298;48.792;9.154;2023-04-07T10:34:10;8.98;;;5.15;;
25341;SDS011;13298;48.792;9.154;2023-04-07T10:36:45;8.55;;;5.57;;
25341;SDS011;13298;48.792;9.154;2023-04-07T10:39:38;10.73;;;5.35;;
25341;SDS011;13298;48.792;9.154;2023-04-07T10:42:04;7.82;;;5.22;;
25341;SDS011;13298;48.792;9.154;2023-04-07T10:47:06;7.95;;;5.05;;
25341;SDS011;13298;48.792;9.154;2023-04-07T10:49:32;8.35;;;4.97;;
25341;SDS011;13298;48.792;9.154;2023-04-07T10:54:37;7.72;;;5.22;;
25341;SDS011;13298;48.792;9.154;2023-04-07T10:57:10;8.63;;;5.47;;
25341;SDS011;13298;48.792;9.154;2023-04-07T10:59:38;10.18;;;4.97;;
25341;SDS011;13298;48.792;9.154;2023-04-07T11:04:36;8.10;;;5.10;;
25341;SDS011;13298;48.792;9.154;2023-04-07T11:07:03;7.95;;;4.68;;
25341;SDS011;13298;48.792;9.154;2023-04-07T11:09:29;8.40;;;4.90;;
25341;SDS011;13298;48.792;9.154;2023-04-07T11:11:54;6.75;;;4.05;;
25341;SDS011;13298;48.792;9.154;2023-04-07T11:14:30;9.32;;;6.45;;
25341;SDS011;13298;48.792;9.154;2023-04-07T11:16:58;8.65;;;5.00;;
25341;SDS011;13298;48.792;9.154;2023-04-07T11:19:25;7.53;;;4.35;;
25341;SDS011;13298;48.792;9.154;2023-04-07T11:22:12;7.07;;;4.53;;
25341;SDS011;13298;48.792;9.154;2023-04-07T11:24:40;5.20;;;3.50;;
25341;SDS011;13298;48.792;9.154;2023-04-07T11:27:11;12.35;;;5.60;;
25341;SDS011;13298;48.792;9.154;2023-04-07T11:29:37;19.97;;;7.70;;
25341;SDS011;13298;48.792;9.154;2023-04-07T11:32:04;8.63;;;4.55;;
25341;SDS011;13298;48.792;9.154;2023-04-07T11:34:38;6.22;;;4.43;;
25341;SDS011;13298;48.792;9.154;2023-04-07T11:37:20;8.07;;;4.88;;
25341;SDS011;13298;48.792;9.154;2023-04-07T11:39:54;10.55;;;5.70;;
25341;SDS011;13298;48.792;9.154;2023-04-07T11:42:31;10.30;;;5.95;;
25341;SDS011;13298;48.792;9.154;2023-04-07T11:44:59;9.32;;;6.05;;
25341;SDS011;13298;48.792;9.154;2023-04-07T11:47:35;8.13;;;5.22;;
25341;SDS011;13298;48.792;9.154;2023-04-07T11:50:02;14.73;;;6.90;;
25341;SDS011;13298;48.792;9.154;2023-04-07T11:52:28;13.00;;;7.28;;
25341;SDS011;13298;48.792;9.154;2023-04-07T11:55:05;13.48;;;7.22;;
25341;SDS011;13298;48.792;9.154;2023-04-07T11:57:31;13.20;;;7.90;;
25341;SDS011;13298;48.792;9.154;2023-04-07T12:00:06;9.82;;;6.68;;
25341;SDS011;13298;48.792;9.154;2023-04-07T12:02:36;12.48;;;7.30;;
25341;SDS011;13298;48.792;9.154;2023-04-07T12:05:03;13.10;;;7.63;;
25341;SDS011;13298;48.792;9.154;2023-04-07T12:07:29;10.18;;;6.70;;
25341;SDS011;13298;48.792;9.154;2023-04-07T12:09:55;8.75;;;6.50;;
25341;SDS011;13298;48.792;9.154;2023-04-07T12:12:24;11.07;;;7.30;;
25341;SDS011;13298;48.792;9.154;2023-04-07T12:14:53;14.25;;;6.72;;
25341;SDS011;13298;48.792;9.154;2023-04-07T12:17:20;9.07;;;6.30;;
25341;SDS011;13298;48.792;9.154;2023-04-07T12:19:50;5.78;;;4.70;;
25341;SDS011;13298;48.792;9.154;2023-04-07T12:22:17;9.90;;;6.28;;
25341;SDS011;13298;48.792;9.154;2023-04-07T12:24:43;10.40;;;6.30;;
25341;SDS011;13298;48.792;9.154;2023-04-07T12:27:10;7.22;;;5.00;;
25341;SDS011;13298;48.792;9.154;2023-04-07T12:29:36;6.07;;;3.72;;
25341;SDS011;13298;48.792;9.154;2023-04-07T12:32:02;4.43;;;2.65;;
25341;SDS011;13298;48.792;9.154;2023-04-07T12:34:29;4.57;;;2.70;;
25341;SDS011;13298;48.792;9.154;2023-04-07T12:36:54;5.10;;;2.97;;
25341;SDS011;13298;48.792;9.154;2023-04-07T12:39:20;8.50;;;4.20;;
25341;SDS011;13298;48.792;9.154;2023-04-07T12:41:46;8.75;;;5.20;;
25341;SDS011;13298;48.792;9.154;2023-04-07T12:44:13;7.35;;;4.63;;
25341;SDS011;13298;48.792;9.154;2023-04-07T12:46:40;7.13;;;4.88;;
25341;SDS011;13298;48.792;9.154;2023-04-07T12:49:07;8.18;;;5.45;;
25341;SDS011;13298;48.792;9.154;2023-04-07T12:51:32;6.50;;;4.35;;
25341;SDS011;13298;48.792;9.154;2023-04-07T12:53:58;4.80;;;4.03;;
25341;SDS011;13298;48.792;9.154;2023-04-07T12:56:27;11.25;;;4.18;;
25341;SDS011;13298;48.792;9.154;2023-04-07T12:58:53;6.38;;;3.70;;
25341;SDS011;13298;48.792;9.154;2023-04-07T13:01:19;4.90;;;3.10;;
25341;SDS011;13298;48.792;9.154;2023-04-07T13:03:45;5.88;;;2.70;;
25341;SDS011;13298;48.792;9.154;2023-04-07T13:06:11;5.65;;;2.40;;
25341;SDS011;13298;48.792;9.154;2023-04-07T13:08:38;3.47;;;1.88;;
25341;SDS011;13298;48.792;9.154;2023-04-07T13:11:04;3.67;;;2.00;;
25341;SDS011;13298;48.792;9.154;2023-04-07T13:13:31;4.13;;;2.20;;
25341;SDS011;13298;48.792;9.154;2023-04-07T13:15:57;4.65;;;2.33;;
25341;SDS011;13298;48.792;9.154;2023-04-07T13:18:22;5.50;;;2.38;;
25341;SDS011;13298;48.792;9.154;2023-04-07T13:20:48;3.03;;;1.70;;
25341;SDS011;13298;48.792;9.154;2023-04-07T13:23:14;3.85;;;2.20;;
25341;SDS011;13298;48.792;9.154;2023-04-07T13:25:40;5.00;;;2.70;;
25341;SDS011;13298;48.792;9.154;2023-04-07T13:28:06;6.18;;;3.50;;
25341;SDS011;13298;48.792;9.154;2023-04-07T13:30:32;5.00;;;3.42;;
25341;SDS011;13298;48.792;9.154;2023-04-07T13:32:58;7.78;;;3.70;;
25341;SDS011;13298;48.792;9.154;2023-04-07T13:35:23;4.57;;;3.38;;
25341;SDS011;13298;48.792;9.154;2023-04-07T13:37:49;4.97;;;3.17;;
25341;SDS011;13298;48.792;9.154;2023-04-07T13:40:15;7.45;;;3.00;;
25341;SDS011;13298;48.792;9.154;2023-04-07T13:42:41;3.67;;;2.30;;
25341;SDS011;13298;48.792;9.154;2023-04-07T13:45:07;4.15;;;2.40;;
25341;SDS011;13298;48.792;9.154;2023-04-07T13:47:33;3.17;;;2.47;;
25341;SDS011;13298;48.792;9.154;2023-04-07T13:50:00;3.33;;;2.22;;
25341;SDS011;13298;48.792;9.154;2023-04-07T13:52:26;3.17;;;1.73;;
25341;SDS011;13298;48.792;9.154;2023-04-07T13:54:52;2.63;;;1.60;;
25341;SDS011;13298;48.792;9.154;2023-04-07T13:57:18;2.35;;;1.67;;
25341;SDS011;13298;48.792;9.154;2023-04-07T13:59:47;3.88;;;2.00;;
25341;SDS011;13298;48.792;9.154;2023-04-07T14:02:17;5.50;;;2.00;;
25341;SDS011;13298;48.792;9.154;2023-04-07T14:04:44;3.25;;;1.70;;
25341;SDS011;13298;48.792;9.154;2023-04-07T14:07:09;3.50;;;1.70;;
25341;SDS011;13298;48.792;9.154;2023-04-07T14:09:36;3.17;;;1.77;;
25341;SDS011;13298;48.792;9.154;2023-04-07T14:12:02;4.47;;;2.45;;
25341;SDS011;13298;48.792;9.154;2023-04-07T14:14:28;5.07;;;2.33;;
25341;SDS011;13298;48.792;9.154;2023-04-07T14:16:55;2.83;;;1.90;;
25341;SDS011;13298;48.792;9.154;2023-04-07T14:19:21;5.72;;;2.53;;
25341;SDS011;13298;48.792;9.154;2023-04-07T14:21:47;4.82;;;2.30;;
25341;SDS011;13298;48.792;9.154;2023-04-07T14:24:14;2.58;;;2.03;;
25341;SDS011;13298;48.792;9.154;2023-04-07T14:26:41;3.13;;;1.83;;
25341;SDS011;13298;48.792;9.154;2023-04-07T14:29:07;3.65;;;2.05;;
25341;SDS011;13298;48.792;9.154;2023-04-07T14:31:33;8.45;;;3.05;;
25341;SDS011;13298;48.792;9.154;2023-04-07T14:33:59;5.53;;;3.20;;
25341;SDS011;13298;48.792;9.154;2023-04-07T14:36:25;6.43;;;3.03;;
25341;SDS011;13298;48.792;9.154;2023-04-07T14:38:51;6.63;;;3.40;;
25341;SDS011;13298;48.792;9.154;2023-04-07T14:41:18;5.45;;;3.08;;
25341;SDS011;13298;48.792;9.154;2023-04-07T14:43:44;5.80;;;3.20;;
25341;SDS011;13298;48.792;9.154;2023-04-07T14:46:11;5.15;;;3.05;;
25341;SDS011;13298;48.792;9.154;2023-04-07T14:48:38;5.68;;;3.05;;
25341;SDS011;13298;48.792;9.154;2023-04-07T14:51:11;4.75;;;2.75;;
25341;SDS011;13298;48.792;9.154;2023-04-07T14:53:37;6.13;;;3.13;;
25341;SDS011;13298;48.792;9.154;2023-04-07T14:56:05;6.25;;;3.35;;
25341;SDS011;13298;48.792;9.154;2023-04-07T14:58:31;5.28;;;3.22;;
25341;SDS011;13298;48.792;9.154;2023-04-07T15:00:57;5.22;;;2.72;;